Hlavní strana
METAR-TAF:

METAR-TAF

Letiště :

Córdoba, Španělsko

zeměpisná šířka: 37-51N, zeměpisná délka: 004-51W, výška: 90 m

Aktuální stav počasí

Zpráva byla vytvořena před 24 minutami, v 22:30 UTC
vítr z různých směrů 1 kt
Teplota 2°C
Vlhkost vzduchu 100%
Tlak 1027 hPa
Viditelnost 10 km a více
Žádná oblačnost pod 1500 m, nevyskytují se cumulonimby.

METAR: LEBA 152230Z AUTO VRB01KT CAVOK 02/02 Q1027

Čas: 23:54 (22:54 UTC)

Předpověď počasí

Zpráva byla vytvořena před 8 hodinami a 54 minutami, v 14:00 UTC
Předpověď platná od 15 v 15 UTC do 16 v 15 UTC
Východoseverovýchodní vítr 4 kt
Viditelnost 10 km a více
Žádná oblačnost pod 1500 m, nevyskytují se cumulonimby.
Pravděpodobnost 30% :
Dočasný
od 15 v 20 UTC do 16 v 08 UTC
Viditelnost: 3000 m
kouřmo

TAF: LEBA 151400Z 1515/1615 07004KT CAVOK TX14/1615Z TNM01/1607Z PROB30 TEMPO 1520/1608 3000 BR

Stav a předpovědi počasí z více než 4 000 letišť (zprávy METAR a TAF).

Červené a žluté tečky na mapě představují dostupné meteorologické stanice.

Když kurzor umístíte na tečku, zobrazí se název stanice.

Pak kliknutím zobrazíte stav a předpověď počasí.

Chcete-li změnit mapu, kliknutím na zelené tlačítko se znaménkem +mapu přiblížíte, kliknutím na zelené tlačítko se znaménkem – mapu oddálíte a kliknutím na zelené šipky přejdete na sousední mapy.


METAR-TAF: